Time;durP1;ratioP1;P1;durP2;ratioP2;P2;SDS_P1;SDS_P2;PMS_P1;PMS_P2;Temp;Humidity;BMP_temperature;BMP_pressure;BME280_temperature;BME280_humidity;BME280_pressure;Samples;Min_cycle;Max_cycle;Signal;HPM_P1;HPM_P2
2021/09/15 00:01:34;;;;;;;9.23;8.50;;;;;;;24.83;50.63;95308.56;5009997;28;20060;-69
2021/09/15 00:03:59;;;;;;;8.88;8.18;;;;;;;24.86;50.46;95305.81;5009285;28;20038;-69
2021/09/15 00:06:24;;;;;;;8.18;7.57;;;;;;;24.84;50.41;95300.00;5009041;28;20112;-69
2021/09/15 00:08:50;;;;;;;8.55;7.85;;;;;;;24.84;50.70;95299.22;5008181;28;20125;-69
2021/09/15 00:11:17;;;;;;;8.40;7.78;;;;;;;24.71;50.50;95279.81;5008286;28;20406;-69
2021/09/15 00:13:43;;;;;;;8.88;8.20;;;;;;;24.86;50.50;95292.22;5010089;28;20026;-68
2021/09/15 00:16:08;;;;;;;9.68;8.98;;;;;;;24.85;50.62;95292.63;5008726;28;20103;-68
2021/09/15 00:18:34;;;;;;;9.68;8.73;;;;;;;24.83;50.48;95286.81;5008320;28;20038;-68
2021/09/15 00:20:59;;;;;;;9.55;8.85;;;;;;;24.74;50.49;95267.38;5008338;28;20109;-69
2021/09/15 00:23:25;;;;;;;9.25;8.55;;;;;;;24.83;50.68;95289.53;5007692;28;20034;-69
2021/09/15 00:25:50;;;;;;;9.65;8.63;;;;;;;24.76;50.57;95282.13;5010256;28;20455;-69
2021/09/15 00:28:16;;;;;;;9.25;8.38;;;;;;;24.83;50.64;95290.28;5008128;28;20116;-69
2021/09/15 00:30:41;;;;;;;8.95;8.15;;;;;;;24.83;50.62;95292.25;5007831;28;20380;-68
2021/09/15 00:33:06;;;;;;;10.07;9.27;;;;;;;24.82;50.56;95286.00;5008070;28;20133;-68
2021/09/15 00:35:32;;;;;;;9.50;8.80;;;;;;;24.80;50.67;95282.91;5008275;28;20395;-68
2021/09/15 00:37:57;;;;;;;10.55;9.65;;;;;;;24.75;50.59;95279.81;5009993;28;20145;-69
2021/09/15 00:40:23;;;;;;;9.93;9.23;;;;;;;24.63;50.78;95264.69;5007389;28;20492;-69
2021/09/15 00:42:48;;;;;;;9.50;8.70;;;;;;;24.66;51.00;95272.03;5007572;28;20121;-67
2021/09/15 00:45:14;;;;;;;9.80;8.90;;;;;;;24.67;51.08;95270.91;5007923;28;20053;-68
2021/09/15 00:47:39;;;;;;;9.63;7.90;;;;;;;24.53;51.02;95257.31;5007867;28;20038;-69
2021/09/15 00:50:05;;;;;;;9.43;8.73;;;;;;;24.59;50.97;95275.56;5007757;28;20046;-68
2021/09/15 00:52:30;;;;;;;9.38;8.65;;;;;;;24.62;50.87;95274.03;5009975;28;20452;-68
2021/09/15 00:54:56;;;;;;;12.27;9.18;;;;;;;24.57;51.16;95277.91;5007259;28;20030;-69
2021/09/15 00:57:21;;;;;;;8.98;8.18;;;;;;;24.33;51.51;95274.00;4981885;28;20038;-69
2021/09/15 00:59:46;;;;;;;8.25;7.65;;;;;;;24.16;51.78;95271.28;5007165;28;20134;-69
2021/09/15 01:02:12;;;;;;;10.10;9.38;;;;;;;24.27;51.74;95269.34;5007796;28;20026;-68
2021/09/15 01:04:38;;;;;;;9.80;9.00;;;;;;;24.41;51.75;95274.78;5009573;28;20056;-69
2021/09/15 01:07:03;;;;;;;9.20;8.40;;;;;;;24.43;51.49;95274.41;5007925;28;20450;-69
2021/09/15 01:09:31;;;;;;;10.07;9.27;;;;;;;24.53;51.26;95271.69;5006821;28;20045;-71
2021/09/15 01:11:58;;;;;;;10.02;9.13;;;;;;;24.63;51.14;95281.78;5007345;28;20089;-69
2021/09/15 01:14:24;;;;;;;10.02;9.23;;;;;;;24.68;50.88;95282.56;5007467;28;20066;-68
2021/09/15 01:16:56;;;;;;;9.25;8.55;;;;;;;24.70;51.07;95280.97;5009581;28;20121;-68
2021/09/15 01:19:23;;;;;;;9.63;8.90;;;;;;;24.68;50.82;95285.28;5007256;28;20046;-69
2021/09/15 01:21:56;;;;;;;9.95;9.05;;;;;;;24.59;50.94;95269.34;5007753;28;20034;-69
2021/09/15 01:24:23;;;;;;;10.23;9.43;;;;;;;24.72;50.95;95275.13;5006933;28;20436;-68
2021/09/15 01:26:50;;;;;;;10.13;9.13;;;;;;;24.70;50.90;95270.09;5007318;28;20038;-68
2021/09/15 01:29:19;;;;;;;9.38;8.68;;;;;;;24.66;50.99;95272.03;5007471;28;20105;-69
2021/09/15 01:32:00;;;;;;;9.88;9.07;;;;;;;24.49;50.97;95256.53;5010009;28;20034;-69
2021/09/15 01:34:27;;;;;;;9.10;8.40;;;;;;;24.43;51.40;95261.59;5008491;28;20046;-68
2021/09/15 01:36:53;;;;;;;9.95;9.15;;;;;;;24.34;51.25;95253.03;5007754;28;20139;-68
2021/09/15 01:39:18;;;;;;;11.30;10.20;;;;;;;24.33;51.50;95270.50;5006298;28;20559;-68
2021/09/15 01:41:44;;;;;;;13.02;11.82;;;;;;;24.14;51.34;95260.78;5007311;28;20040;-68
2021/09/15 01:44:09;;;;;;;12.07;11.07;;;;;;;24.11;51.75;95270.50;5007025;28;20648;-68
2021/09/15 01:46:34;;;;;;;11.52;10.63;;;;;;;23.95;52.03;95250.31;5009334;28;20108;-68
2021/09/15 01:49:00;;;;;;;11.63;10.65;;;;;;;23.88;52.10;95256.50;5007069;28;20034;-69
2021/09/15 01:51:25;;;;;;;10.50;9.60;;;;;;;23.84;52.22;95256.50;5007497;28;20487;-68
2021/09/15 01:53:50;;;;;;;10.65;9.70;;;;;;;23.39;52.89;95205.56;5006373;28;20078;-69
2021/09/15 01:56:16;;;;;;;11.95;10.90;;;;;;;23.70;53.01;95250.25;5006970;28;20037;-68
2021/09/15 01:58:41;;;;;;;12.48;11.40;;;;;;;23.69;52.89;95252.22;5008925;28;20026;-68
2021/09/15 02:01:07;;;;;;;11.15;10.35;;;;;;;23.64;52.74;95249.88;5007236;28;20455;-69
2021/09/15 02:03:32;;;;;;;12.60;11.60;;;;;;;23.66;52.68;95253.00;5007108;28;20049;-68
2021/09/15 02:05:58;;;;;;;11.80;10.90;;;;;;;23.55;52.73;95246.75;4989596;28;20045;-68
2021/09/15 02:08:23;;;;;;;12.68;11.57;;;;;;;23.58;52.68;95259.53;5007242;28;20396;-71
2021/09/15 02:10:49;;;;;;;13.85;12.65;;;;;;;23.52;52.81;95244.78;5010756;28;20018;-69
2021/09/15 02:13:14;;;;;;;12.00;11.02;;;;;;;23.44;52.60;95237.78;5010364;28;20518;-69
2021/09/15 02:15:39;;;;;;;13.65;12.57;;;;;;;23.48;53.19;95249.41;5010788;28;20066;-68
2021/09/15 02:18:05;;;;;;;16.38;15.10;;;;;;;23.42;53.18;95249.03;5010717;28;20038;-68
2021/09/15 02:20:30;;;;;;;12.40;11.30;;;;;;;23.26;53.56;95232.31;5010034;28;20049;-70
2021/09/15 02:22:56;;;;;;;14.85;13.50;;;;;;;23.26;53.49;95243.16;5011278;28;20049;-70
2021/09/15 02:25:21;;;;;;;14.82;13.40;;;;;;;23.22;53.61;95232.28;5009376;28;20042;-68
2021/09/15 02:27:46;;;;;;;13.07;11.88;;;;;;;23.15;53.88;95237.69;5010577;28;20104;-68
2021/09/15 02:30:12;;;;;;;15.10;13.82;;;;;;;23.16;53.71;95238.47;5010455;28;20066;-68
2021/09/15 02:32:37;;;;;;;13.02;11.90;;;;;;;23.16;53.61;95233.03;5010751;28;20041;-68
2021/09/15 02:35:03;;;;;;;13.20;12.10;;;;;;;23.08;53.86;95230.31;5011119;28;20022;-69
2021/09/15 02:37:28;;;;;;;13.45;12.27;;;;;;;23.03;54.22;95224.44;5012521;28;20018;-67
2021/09/15 02:39:54;;;;;;;14.32;12.90;;;;;;;23.05;53.65;95227.59;5009549;28;20026;-68
2021/09/15 02:42:19;;;;;;;12.35;11.35;;;;;;;23.01;53.80;95224.84;5010078;28;20447;-68
2021/09/15 02:44:44;;;;;;;14.88;13.55;;;;;;;23.01;53.63;95224.84;5009924;28;20045;-68
2021/09/15 02:47:10;;;;;;;16.05;14.75;;;;;;;23.05;53.75;95225.66;5010061;28;20032;-67
2021/09/15 02:49:35;;;;;;;16.13;14.63;;;;;;;23.03;54.10;95222.53;5011798;28;20030;-68
2021/09/15 02:52:01;;;;;;;15.57;14.07;;;;;;;23.07;53.78;95225.25;5010349;28;20038;-68
2021/09/15 02:54:26;;;;;;;15.73;14.25;;;;;;;23.00;54.01;95214.38;4991788;28;20041;-68
2021/09/15 02:56:51;;;;;;;14.77;13.25;;;;;;;23.04;53.64;95226.03;5009965;28;20065;-68
2021/09/15 02:59:17;;;;;;;15.48;13.88;;;;;;;22.87;53.94;95196.84;5007661;28;20018;-68
2021/09/15 03:01:42;;;;;;;12.88;11.77;;;;;;;23.01;53.77;95224.06;5012075;28;20033;-68
2021/09/15 03:04:08;;;;;;;14.63;13.43;;;;;;;22.99;53.65;95220.97;5009745;28;20514;-68
2021/09/15 03:06:33;;;;;;;13.18;12.00;;;;;;;23.04;53.33;95226.03;5010061;28;20564;-68
2021/09/15 03:08:59;;;;;;;10.40;9.60;;;;;;;22.93;53.73;95220.56;5009573;28;20052;-68
2021/09/15 03:11:24;;;;;;;10.73;9.18;;;;;;;22.97;53.80;95228.69;5009530;28;20046;-70
2021/09/15 03:13:49;;;;;;;12.23;11.18;;;;;;;23.01;53.36;95240.34;5011376;28;20101;-69
2021/09/15 03:16:15;;;;;;;12.10;11.02;;;;;;;23.00;53.76;95246.94;5009728;28;20034;-68
2021/09/15 03:18:40;;;;;;;13.35;12.15;;;;;;;22.98;53.42;95238.38;5009345;28;20129;-68
2021/09/15 03:21:06;;;;;;;13.45;12.27;;;;;;;22.91;53.40;95230.22;5009082;28;20519;-69
2021/09/15 03:23:31;;;;;;;15.30;13.80;;;;;;;22.93;53.42;95233.31;5009415;28;20409;-68
2021/09/15 03:25:57;;;;;;;12.80;11.25;;;;;;;22.88;53.67;95218.22;5010960;28;20080;-69
2021/09/15 03:28:22;;;;;;;14.40;13.20;;;;;;;22.89;53.15;95219.00;5009458;28;20100;-69
2021/09/15 03:30:47;;;;;;;14.05;12.85;;;;;;;22.80;53.59;95203.81;5008872;28;20049;-68
2021/09/15 03:33:13;;;;;;;12.70;11.68;;;;;;;22.90;53.21;95226.75;5009244;28;20046;-68
2021/09/15 03:35:38;;;;;;;11.60;10.60;;;;;;;22.91;53.42;95222.09;4991788;28;20537;-68
2021/09/15 03:38:04;;;;;;;11.32;10.43;;;;;;;22.83;53.44;95205.00;5009159;28;20026;-69
2021/09/15 03:40:29;;;;;;;10.05;9.13;;;;;;;22.88;52.90;95215.50;5010203;28;20022;-68
2021/09/15 03:42:54;;;;;;;9.27;8.57;;;;;;;22.83;53.06;95213.13;5008667;28;20049;-69
2021/09/15 03:45:20;;;;;;;9.75;8.98;;;;;;;22.78;53.05;95214.28;5008878;28;20083;-69
2021/09/15 03:47:45;;;;;;;9.25;8.45;;;;;;;22.72;53.39;95215.00;5009183;28;20038;-70
2021/09/15 03:50:11;;;;;;;9.02;8.23;;;;;;;22.72;53.06;95199.50;5008737;28;20429;-69
2021/09/15 03:52:36;;;;;;;10.75;9.95;;;;;;;22.74;53.05;95201.84;5010566;28;20022;-68
2021/09/15 03:55:02;;;;;;;10.38;9.57;;;;;;;22.77;52.89;95201.06;5008697;28;20095;-68
2021/09/15 03:57:27;;;;;;;11.60;10.50;;;;;;;22.73;52.89;95184.81;5008567;28;20499;-68
2021/09/15 03:59:53;;;;;;;14.68;11.05;;;;;;;22.72;52.85;95188.66;5008194;28;20030;-69
2021/09/15 04:02:18;;;;;;;9.65;8.95;;;;;;;22.83;52.94;95199.56;5008950;28;20050;-69
2021/09/15 04:04:43;;;;;;;11.25;10.13;;;;;;;22.76;52.99;95192.16;5010443;28;20053;-68
2021/09/15 04:07:09;;;;;;;11.00;10.00;;;;;;;22.79;53.12;95198.78;5008705;28;20045;-68
2021/09/15 04:09:34;;;;;;;12.50;11.50;;;;;;;22.76;52.78;95189.44;5007854;28;20098;-68
2021/09/15 04:12:00;;;;;;;11.50;10.65;;;;;;;22.78;52.96;95191.81;5008456;28;20045;-69
2021/09/15 04:14:25;;;;;;;11.70;10.80;;;;;;;22.80;53.14;95189.47;5008017;28;20045;-68
2021/09/15 04:16:51;;;;;;;9.90;9.00;;;;;;;22.78;52.91;95191.81;5010428;28;20148;-68
2021/09/15 04:19:16;;;;;;;12.45;11.45;;;;;;;22.74;53.18;95191.00;5008052;28;20045;-69
2021/09/15 04:21:42;;;;;;;12.57;11.43;;;;;;;22.70;53.12;95193.69;5008438;28;20395;-68
2021/09/15 04:32:19;;;;;;;12.77;11.68;;;;;;;22.80;53.15;95200.31;5007958;28;22149;-68
2021/09/15 04:34:44;;;;;;;16.17;13.00;;;;;;;22.81;53.03;95194.50;5008570;28;20026;-68
2021/09/15 04:37:09;;;;;;;11.98;10.30;;;;;;;22.86;53.23;95195.31;5008220;28;20565;-68
2021/09/15 04:39:35;;;;;;;11.95;11.05;;;;;;;22.88;52.67;95195.69;5007336;28;20050;-68
2021/09/15 04:42:00;;;;;;;10.40;9.60;;;;;;;22.98;52.97;95195.78;5007808;28;20037;-68
2021/09/15 04:44:25;;;;;;;9.40;8.70;;;;;;;22.97;52.64;95185.28;5007594;28;20034;-68
2021/09/15 04:46:51;;;;;;;10.57;9.52;;;;;;;23.13;52.50;95199.31;5009996;28;20637;-68
2021/09/15 04:49:16;;;;;;;9.60;8.82;;;;;;;23.24;52.61;95202.06;5007410;28;20038;-69
2021/09/15 04:51:41;;;;;;;10.20;9.15;;;;;;;23.35;52.25;95211.78;5007665;28;20061;-68
2021/09/15 04:54:07;;;;;;;10.32;9.52;;;;;;;23.35;52.08;95200.94;5007670;28;20041;-68
2021/09/15 04:56:32;;;;;;;8.30;7.68;;;;;;;23.43;51.73;95207.13;5007228;28;20053;-68
2021/09/15 04:58:58;;;;;;;8.43;7.82;;;;;;;23.47;51.67;95215.28;5009023;28;20659;-68
2021/09/15 05:01:23;;;;;;;7.95;7.15;;;;;;;23.44;51.49;95210.63;5007520;28;20088;-68
2021/09/15 05:03:48;;;;;;;8.32;7.47;;;;;;;23.44;51.37;95210.63;5007415;28;20121;-69
2021/09/15 05:06:14;;;;;;;7.82;7.13;;;;;;;23.46;50.94;95217.25;5007417;28;20623;-69
2021/09/15 05:08:39;;;;;;;9.07;7.53;;;;;;;23.07;51.43;95217.13;5007335;28;20065;-71
2021/09/15 05:11:04;;;;;;;8.23;7.53;;;;;;;22.95;51.64;95212.03;5007190;28;20026;-71
2021/09/15 05:13:30;;;;;;;7.93;7.32;;;;;;;23.32;51.42;95226.13;5001001;28;20017;-72
2021/09/15 05:15:55;;;;;;;8.15;7.38;;;;;;;22.92;51.53;95219.00;5007561;28;20049;-72
2021/09/15 05:18:21;;;;;;;7.35;6.18;;;;;;;22.83;51.65;95219.31;5007615;28;20124;-66
2021/09/15 05:20:47;;;;;;;7.05;6.50;;;;;;;22.79;52.37;95215.81;5007186;28;20072;-68
2021/09/15 05:23:12;;;;;;;7.13;6.45;;;;;;;23.17;51.73;95218.31;5007251;28;20025;-70
2021/09/15 05:25:37;;;;;;;8.07;7.38;;;;;;;23.35;51.30;95228.06;5009205;28;20022;-69
2021/09/15 05:28:05;;;;;;;8.38;7.03;;;;;;;23.38;50.95;95207.50;5011273;28;20026;-70
2021/09/15 05:30:30;;;;;;;7.78;7.18;;;;;;;23.43;50.94;95192.78;5002956;28;20042;-69
2021/09/15 05:32:56;;;;;;;8.35;7.53;;;;;;;23.67;50.64;95207.59;5007974;28;20092;-70
2021/09/15 05:35:21;;;;;;;9.60;7.68;;;;;;;23.82;50.33;95215.38;4989392;28;20062;-71
2021/09/15 05:37:47;;;;;;;8.05;7.22;;;;;;;23.93;50.18;95203.75;4991325;28;20075;-69
2021/09/15 05:40:13;;;;;;;8.00;7.20;;;;;;;24.07;50.21;95199.09;4988559;28;20041;-69
2021/09/15 05:42:39;;;;;;;8.60;6.63;;;;;;;24.16;49.72;95190.53;5006855;28;20049;-69
2021/09/15 05:45:05;;;;;;;8.27;7.45;;;;;;;24.32;49.44;95203.72;5009255;28;20034;-77
2021/09/15 05:47:31;;;;;;;8.05;7.38;;;;;;;24.45;49.44;95206.81;5012434;28;20082;-76
2021/09/15 05:49:58;;;;;;;7.68;7.07;;;;;;;24.59;49.29;95218.44;5012385;28;20360;-69
2021/09/15 05:52:24;;;;;;;6.63;6.07;;;;;;;24.70;48.93;95225.81;5011426;28;20119;-67
2021/09/15 05:54:49;;;;;;;7.15;6.60;;;;;;;24.74;49.06;95221.91;5011129;28;20093;-72
2021/09/15 05:57:15;;;;;;;7.78;7.07;;;;;;;24.85;48.71;95219.94;5010228;28;20084;-72
2021/09/15 05:59:40;;;;;;;7.60;6.78;;;;;;;25.06;48.68;95232.72;5010393;28;20030;-71
2021/09/15 06:02:06;;;;;;;8.15;6.75;;;;;;;25.16;48.26;95214.78;5010818;28;20034;-71
2021/09/15 06:04:31;;;;;;;6.63;6.05;;;;;;;25.27;48.06;95215.50;5012701;28;20018;-72
2021/09/15 06:06:57;;;;;;;6.15;5.68;;;;;;;25.47;47.68;95231.34;5010933;28;20046;-62
2021/09/15 06:09:22;;;;;;;8.25;6.18;;;;;;;25.51;47.36;95223.94;5010246;28;20657;-62
2021/09/15 06:11:47;;;;;;;8.40;6.47;;;;;;;25.55;47.50;95224.72;5010345;28;20045;-61
2021/09/15 06:14:13;;;;;;;6.88;6.28;;;;;;;25.62;47.41;95221.94;5010112;28;20026;-61
2021/09/15 06:16:38;;;;;;;9.07;6.65;;;;;;;25.80;47.30;95235.47;5012539;28;20022;-61
2021/09/15 06:19:04;;;;;;;6.65;6.05;;;;;;;25.88;46.84;95231.50;5008882;28;20496;-63
2021/09/15 06:21:29;;;;;;;7.50;6.80;;;;;;;26.08;46.95;95237.22;5010511;28;20125;-62
2021/09/15 06:23:55;;;;;;;7.05;6.20;;;;;;;26.22;46.62;95239.81;5008886;28;20455;-60
2021/09/15 06:26:24;;;;;;;7.38;6.68;;;;;;;26.39;46.34;95249.03;5009882;28;20046;-63
2021/09/15 06:28:53;;;;;;;8.05;7.20;;;;;;;26.49;46.02;95242.72;5011890;28;20356;-61
2021/09/15 06:31:20;;;;;;;9.98;7.53;;;;;;;26.59;46.10;95243.81;5010610;28;20108;-61
2021/09/15 06:33:46;;;;;;;7.32;6.63;;;;;;;26.52;45.89;95230.25;5010185;28;20108;-62
2021/09/15 06:36:11;;;;;;;8.45;6.75;;;;;;;26.63;45.42;95228.19;5010514;28;20667;-61
2021/09/15 06:38:37;;;;;;;6.85;6.32;;;;;;;26.96;45.12;95243.78;5010205;28;20401;-60
2021/09/15 06:41:02;;;;;;;7.53;6.15;;;;;;;27.12;44.70;95237.00;5009732;28;20104;-60
2021/09/15 06:43:27;;;;;;;7.15;6.53;;;;;;;27.30;44.27;95234.09;5011480;28;20016;-62
2021/09/15 06:45:53;;;;;;;6.45;5.95;;;;;;;27.42;44.54;95226.09;5010135;28;20649;-60
2021/09/15 06:48:20;;;;;;;6.78;6.15;;;;;;;27.65;44.06;95233.59;5009758;28;20026;-60
2021/09/15 06:50:46;;;;;;;5.93;5.50;;;;;;;27.65;44.06;95236.34;5009404;28;20553;-64
2021/09/15 06:53:12;;;;;;;7.22;6.63;;;;;;;27.77;44.17;95232.28;5009643;28;20036;-66
2021/09/15 06:55:37;;;;;;;7.82;6.50;;;;;;;27.78;43.55;95227.59;5010736;28;20037;-63
2021/09/15 06:58:02;;;;;;;7.55;6.63;;;;;;;27.73;43.98;95224.13;5009824;28;20125;-63
2021/09/15 07:00:28;;;;;;;7.00;6.40;;;;;;;27.80;43.89;95227.97;5009142;28;20497;-64
2021/09/15 07:02:55;;;;;;;9.02;6.57;;;;;;;27.55;44.31;95220.09;5009754;28;20038;-64
2021/09/15 07:05:20;;;;;;;7.22;6.10;;;;;;;27.58;44.44;95227.44;5010100;28;20021;-75
2021/09/15 07:07:46;;;;;;;6.78;6.28;;;;;;;27.66;44.99;95237.09;5012458;28;20052;-76
2021/09/15 07:10:11;;;;;;;8.43;6.55;;;;;;;27.66;44.65;95242.56;5010164;28;20045;-74
2021/09/15 07:12:38;;;;;;;11.85;8.13;;;;;;;27.51;45.04;95227.56;5009547;28;20044;-76
2021/09/15 07:15:07;;;;;;;7.47;6.50;;;;;;;27.84;44.95;95242.34;5010527;28;20038;-76
2021/09/15 07:17:33;;;;;;;13.70;7.57;;;;;;;27.99;44.56;95238.19;4991168;28;20089;-76
2021/09/15 07:19:58;;;;;;;11.40;6.72;;;;;;;28.11;44.34;95240.38;4992255;28;20492;-77
2021/09/15 07:22:24;;;;;;;7.88;6.47;;;;;;;28.29;44.73;95236.56;4991035;28;20035;-78
2021/09/15 07:24:51;;;;;;;7.70;7.03;;;;;;;28.26;43.36;95242.88;4990735;28;20177;-76
2021/09/15 07:27:18;;;;;;;7.88;7.20;;;;;;;28.36;43.65;95229.06;5005771;28;20038;-78
2021/09/15 07:29:44;;;;;;;9.57;6.95;;;;;;;28.48;43.21;95231.19;5010061;28;20443;-79
2021/09/15 07:32:09;;;;;;;15.15;7.50;;;;;;;28.79;43.22;95238.47;5010454;28;20022;-75
2021/09/15 07:34:35;;;;;;;9.88;7.20;;;;;;;28.37;42.81;95230.59;5011820;28;20460;-75
2021/09/15 07:37:01;;;;;;;8.48;6.32;;;;;;;26.35;47.00;95261.91;5009884;28;20081;-77
2021/09/15 07:39:26;;;;;;;12.23;7.40;;;;;;;25.74;49.31;95251.41;5009788;28;20050;-79
2021/09/15 07:41:51;;;;;;;10.10;8.30;;;;;;;25.38;50.19;95234.50;5009353;28;20642;-76
2021/09/15 07:44:17;;;;;;;7.85;6.10;;;;;;;27.03;46.96;95232.03;4992453;28;20514;-74
2021/09/15 07:46:42;;;;;;;6.97;6.38;;;;;;;27.35;46.04;95236.34;5011645;28;20045;-73
2021/09/15 07:49:08;;;;;;;7.47;6.82;;;;;;;28.07;44.31;95233.41;5008259;28;20042;-72
2021/09/15 07:51:33;;;;;;;8.25;6.38;;;;;;;28.88;43.50;95253.16;5008833;28;20073;-74
2021/09/15 07:53:59;;;;;;;8.40;7.60;;;;;;;28.36;43.07;95245.47;5008416;28;20483;-74
2021/09/15 07:56:24;;;;;;;8.05;7.35;;;;;;;28.81;42.49;95225.88;5008474;28;20111;-72
2021/09/15 07:58:50;;;;;;;8.00;6.72;;;;;;;29.38;41.64;95233.00;5009846;28;20392;-71
2021/09/15 08:01:15;;;;;;;7.32;6.78;;;;;;;28.71;41.86;95248.75;5008156;28;20045;-71
2021/09/15 08:03:40;;;;;;;7.55;6.68;;;;;;;28.85;41.78;95237.53;5008539;28;20487;-73
2021/09/15 08:06:06;;;;;;;8.15;7.45;;;;;;;29.21;41.40;95236.88;5008991;28;20562;-74
2021/09/15 08:08:32;;;;;;;7.55;6.97;;;;;;;29.18;41.61;95226.78;5008103;28;20573;-73
2021/09/15 08:10:59;;;;;;;7.80;7.15;;;;;;;29.41;41.56;95218.44;4992999;28;20037;-72
2021/09/15 08:13:25;;;;;;;7.53;6.93;;;;;;;29.60;41.79;95208.69;5009170;28;20140;-70
2021/09/15 08:15:53;;;;;;;9.63;7.18;;;;;;;29.60;41.20;95181.28;5008767;28;20494;-70
2021/09/15 08:18:19;;;;;;;7.28;6.65;;;;;;;30.06;41.24;95203.31;5008773;28;20052;-70
2021/09/15 08:20:46;;;;;;;7.82;7.22;;;;;;;30.31;40.43;95208.22;5008117;28;20519;-71
2021/09/15 08:23:13;;;;;;;7.75;6.75;;;;;;;30.51;39.85;95201.44;5008267;28;20029;-70
2021/09/15 08:25:38;;;;;;;6.32;5.72;;;;;;;30.72;39.69;95186.38;5010417;28;20122;-70
2021/09/15 08:28:05;;;;;;;8.23;5.93;;;;;;;31.15;38.42;95214.63;5008068;28;20031;-71
2021/09/15 08:30:30;;;;;;;7.00;6.35;;;;;;;31.37;37.90;95201.06;4999948;28;20511;-70
2021/09/15 08:32:56;;;;;;;6.53;6.03;;;;;;;31.63;37.69;95208.13;5008122;28;20049;-71
2021/09/15 08:35:22;;;;;;;6.40;5.80;;;;;;;31.75;36.83;95190.88;5008357;28;20529;-70
2021/09/15 08:37:47;;;;;;;6.63;6.03;;;;;;;31.95;37.19;95198.16;4992914;28;20026;-70
2021/09/15 08:40:13;;;;;;;6.88;5.82;;;;;;;32.00;36.70;95192.88;5007720;28;20038;-71
2021/09/15 08:42:38;;;;;;;7.35;6.18;;;;;;;32.17;36.20;95210.00;5007427;28;20136;-70
2021/09/15 08:45:06;;;;;;;7.25;5.50;;;;;;;32.21;36.17;95201.66;5008063;28;20088;-70
2021/09/15 08:47:36;;;;;;;6.63;6.13;;;;;;;32.36;36.11;95202.75;5000163;28;20487;-70
2021/09/15 08:50:03;;;;;;;7.68;5.95;;;;;;;32.42;35.96;95209.22;5007545;28;20104;-70
2021/09/15 08:52:28;;;;;;;7.25;5.30;;;;;;;32.69;35.73;95202.41;5009746;28;20028;-71
2021/09/15 08:54:54;;;;;;;5.78;5.28;;;;;;;32.93;35.03;95200.03;5007927;28;20121;-71
2021/09/15 08:57:20;;;;;;;5.97;5.47;;;;;;;32.92;34.31;95188.25;5007197;28;20038;-71
2021/09/15 08:59:46;;;;;;;5.72;5.32;;;;;;;32.86;33.78;95184.47;4989927;28;20107;-71
2021/09/15 09:02:12;;;;;;;6.05;5.65;;;;;;;32.78;32.95;95195.00;5007899;28;20018;-70
2021/09/15 09:05:02;;;;;;;6.30;5.80;;;;;;;32.90;33.42;95200.91;4992263;28;20030;-72
2021/09/15 09:07:30;;;;;;;9.65;5.35;;;;;;;32.89;33.42;95191.09;5008555;28;20046;-71
2021/09/15 09:09:59;;;;;;;6.28;5.50;;;;;;;32.83;33.79;95185.38;4990017;28;20450;-71
2021/09/15 09:12:29;;;;;;;5.43;5.03;;;;;;;32.87;33.91;95183.28;4981710;28;20280;-71
2021/09/15 09:15:22;;;;;;;6.55;5.40;;;;;;;32.84;33.93;95189.66;4990070;28;20053;-71
2021/09/15 09:17:49;;;;;;;6.18;5.38;;;;;;;32.76;33.87;95208.44;5002601;28;20042;-71
2021/09/15 09:20:22;;;;;;;6.70;5.18;;;;;;;32.79;34.24;95217.78;5007311;28;20492;-70
2021/09/15 09:23:08;;;;;;;5.68;5.18;;;;;;;32.62;35.08;95219.19;5009758;28;20036;-70
2021/09/15 09:25:46;;;;;;;6.50;5.95;;;;;;;32.49;34.97;95210.94;5007298;28;20073;-71
2021/09/15 09:28:29;;;;;;;8.32;5.50;;;;;;;32.35;35.01;95198.44;5007356;28;20054;-71
2021/09/15 09:30:59;;;;;;;7.70;5.85;;;;;;;32.36;35.65;95216.50;5007474;28;20042;-70
2021/09/15 09:33:26;;;;;;;8.67;5.90;;;;;;;32.25;35.86;95224.31;5007576;28;20061;-71
2021/09/15 09:35:53;;;;;;;6.75;5.22;;;;;;;32.23;35.87;95221.22;5007582;28;21108;-71
2021/09/15 09:38:28;;;;;;;6.78;5.80;;;;;;;32.13;35.71;95233.34;5007708;28;20109;-71
2021/09/15 09:41:11;;;;;;;6.30;5.70;;;;;;;31.43;36.45;95233.09;5009340;28;20456;-71
2021/09/15 09:43:40;;;;;;;7.20;5.80;;;;;;;30.06;39.06;95256.22;5000046;28;20046;-71
2021/09/15 09:46:08;;;;;;;8.18;6.80;;;;;;;26.67;45.88;95262.44;4997502;28;20499;-70
2021/09/15 09:48:37;;;;;;;6.93;5.80;;;;;;;28.10;43.91;95259.91;5007149;28;20064;-70
2021/09/15 09:51:19;;;;;;;9.57;6.03;;;;;;;29.11;42.53;95249.59;5007915;28;20495;-71
2021/09/15 09:53:45;;;;;;;11.60;6.13;;;;;;;27.85;45.33;95269.28;5007362;28;20057;-70
2021/09/15 09:56:10;;;;;;;7.22;6.10;;;;;;;28.58;44.27;95240.38;5007053;28;20472;-70
2021/09/15 09:58:37;;;;;;;7.28;6.70;;;;;;;27.00;47.74;95260.13;5009048;28;20026;-70
2021/09/15 10:01:03;;;;;;;7.63;6.85;;;;;;;27.04;47.52;95263.59;5007185;28;20518;-71
2021/09/15 10:03:28;;;;;;;7.25;6.55;;;;;;;27.41;47.46;95267.50;5007050;28;20026;-69
2021/09/15 10:05:54;;;;;;;9.85;7.18;;;;;;;26.72;47.20;95225.75;5007468;28;20034;-70
2021/09/15 10:08:21;;;;;;;8.23;7.43;;;;;;;27.51;45.64;95258.38;5007628;28;20471;-70
2021/09/15 10:10:50;;;;;;;8.15;6.95;;;;;;;28.06;43.38;95238.09;5008781;28;20033;-71
2021/09/15 10:13:18;;;;;;;8.93;6.70;;;;;;;27.43;45.53;95246.75;5006395;28;20092;-70
2021/09/15 10:15:45;;;;;;;7.35;6.82;;;;;;;28.04;44.50;95258.84;5007192;28;20092;-71
2021/09/15 10:18:13;;;;;;;7.32;6.72;;;;;;;26.51;47.18;95258.69;5007142;28;20060;-72
2021/09/15 10:20:45;;;;;;;7.95;7.30;;;;;;;27.28;46.44;95272.72;5006584;28;20049;-75
2021/09/15 10:23:36;;;;;;;7.93;7.22;;;;;;;26.99;47.32;95272.25;5007194;28;20022;-76
2021/09/15 10:26:29;;;;;;;8.25;7.50;;;;;;;27.39;46.69;95272.59;5009813;28;20056;-71
2021/09/15 10:29:30;;;;;;;8.13;7.43;;;;;;;27.10;46.54;95286.56;5002780;28;20065;-71
2021/09/15 10:32:06;;;;;;;8.88;8.18;;;;;;;27.47;45.24;95225.63;5005830;28;20673;-74
2021/09/15 10:34:40;;;;;;;7.80;7.13;;;;;;;27.95;44.58;95260.16;4991183;28;20054;-75
2021/09/15 10:37:26;;;;;;;8.52;7.00;;;;;;;28.61;43.44;95266.13;4990569;28;20078;-74
2021/09/15 10:40:06;;;;;;;9.63;7.80;;;;;;;27.65;45.48;95266.41;4991258;28;20031;-74
2021/09/15 10:42:35;;;;;;;7.07;6.38;;;;;;;28.10;44.85;95259.91;5001053;28;20045;-76
2021/09/15 10:45:10;;;;;;;7.72;7.03;;;;;;;27.91;44.08;95261.38;5010809;28;20046;-72
2021/09/15 10:47:44;;;;;;;8.65;7.63;;;;;;;27.99;43.58;95260.84;5004455;28;20068;-78
2021/09/15 10:50:12;;;;;;;7.57;6.93;;;;;;;28.93;41.76;95244.44;5012786;28;20029;-71
2021/09/15 10:52:42;;;;;;;7.95;7.00;;;;;;;28.85;42.02;95250.47;5012297;28;20036;-74
2021/09/15 10:55:23;;;;;;;7.50;6.90;;;;;;;28.08;43.70;95254.09;5010755;28;20038;-74
2021/09/15 10:57:49;;;;;;;7.85;7.10;;;;;;;27.13;46.19;95260.44;5010212;28;20284;-75
2021/09/15 11:00:21;;;;;;;8.43;7.55;;;;;;;27.58;45.03;95246.56;5009464;28;20042;-74
2021/09/15 11:02:49;;;;;;;7.93;7.03;;;;;;;27.94;44.75;95246.88;5009509;28;20511;-75
2021/09/15 11:05:26;;;;;;;8.65;6.70;;;;;;;26.94;46.21;95253.59;5010156;28;20116;-76
2021/09/15 11:07:54;;;;;;;7.40;6.70;;;;;;;27.54;44.87;95254.03;5011573;28;20480;-75
2021/09/15 11:13:11;;;;;;;7.05;6.45;;;;;;;29.31;41.12;95241.38;5009087;28;20038;-75
2021/09/15 11:15:47;;;;;;;7.35;6.70;;;;;;;29.23;40.31;95207.88;4976995;28;20554;-74
2021/09/15 11:18:21;;;;;;;7.05;6.35;;;;;;;28.97;41.73;95233.44;5009976;28;20407;-73
2021/09/15 11:20:52;;;;;;;7.38;6.60;;;;;;;28.45;42.59;95251.16;4991881;28;20057;-74
2021/09/15 11:23:18;;;;;;;6.90;6.20;;;;;;;28.93;42.30;95240.94;5009508;28;20056;-75
2021/09/15 11:25:49;;;;;;;9.25;6.53;;;;;;;28.95;42.55;95255.00;5011689;28;20718;-75
2021/09/15 11:28:17;;;;;;;6.78;6.20;;;;;;;28.69;42.19;95253.88;5009164;28;20034;-74
2021/09/15 11:31:04;;;;;;;7.15;6.03;;;;;;;27.90;43.74;95255.16;4991243;28;20061;-73
2021/09/15 11:33:36;;;;;;;6.70;6.20;;;;;;;27.15;44.54;95263.50;5009436;28;20038;-74
2021/09/15 11:36:07;;;;;;;7.97;6.18;;;;;;;27.17;44.43;95261.13;5009722;28;20038;-73
2021/09/15 11:38:35;;;;;;;9.02;6.53;;;;;;;27.26;45.03;95263.38;5009158;28;20049;-74
2021/09/15 11:41:15;;;;;;;6.93;6.32;;;;;;;27.15;45.73;95274.44;5011165;28;20030;-73